sensor_id;sensor_type;location;lat;lon;timestamp;temperature;humidity
19947;DHT22;10135;50.702;7.276;2023-09-18T05:00:58;23.80;64.40
19947;DHT22;10135;50.702;7.276;2023-09-18T05:03:00;23.80;64.60
19947;DHT22;10135;50.702;7.276;2023-09-18T05:05:02;23.70;64.40
19947;DHT22;10135;50.702;7.276;2023-09-18T05:07:03;23.70;64.40
19947;DHT22;10135;50.702;7.276;2023-09-18T05:09:04;23.70;64.40
19947;DHT22;10135;50.702;7.276;2023-09-18T05:11:05;23.70;64.50
19947;DHT22;10135;50.702;7.276;2023-09-18T05:13:06;23.70;64.50
19947;DHT22;10135;50.702;7.276;2023-09-18T05:15:08;23.70;64.60
19947;DHT22;10135;50.702;7.276;2023-09-18T05:17:18;23.70;64.60
19947;DHT22;10135;50.702;7.276;2023-09-18T05:19:19;23.70;64.60
19947;DHT22;10135;50.702;7.276;2023-09-18T05:21:19;23.70;64.60
19947;DHT22;10135;50.702;7.276;2023-09-18T05:23:25;23.70;64.60
19947;DHT22;10135;50.702;7.276;2023-09-18T05:25:26;23.70;64.60
19947;DHT22;10135;50.702;7.276;2023-09-18T05:27:29;23.70;64.70
19947;DHT22;10135;50.702;7.276;2023-09-18T05:29:30;23.70;64.70
19947;DHT22;10135;50.702;7.276;2023-09-18T05:31:30;23.70;64.70
19947;DHT22;10135;50.702;7.276;2023-09-18T05:33:31;23.70;64.70
19947;DHT22;10135;50.702;7.276;2023-09-18T05:35:36;23.70;64.70
19947;DHT22;10135;50.702;7.276;2023-09-18T05:37:41;23.70;64.80
19947;DHT22;10135;50.702;7.276;2023-09-18T05:39:41;23.70;64.80
19947;DHT22;10135;50.702;7.276;2023-09-18T05:41:42;23.60;64.70
19947;DHT22;10135;50.702;7.276;2023-09-18T05:43:43;23.70;64.80
19947;DHT22;10135;50.702;7.276;2023-09-18T05:45:43;23.70;64.80
19947;DHT22;10135;50.702;7.276;2023-09-18T05:47:44;23.60;64.70
19947;DHT22;10135;50.702;7.276;2023-09-18T05:49:44;23.70;64.80
19947;DHT22;10135;50.702;7.276;2023-09-18T05:51:45;23.60;64.70
19947;DHT22;10135;50.702;7.276;2023-09-18T05:53:47;23.60;64.70
19947;DHT22;10135;50.702;7.276;2023-09-18T05:55:48;23.70;64.80
19947;DHT22;10135;50.702;7.276;2023-09-18T05:57:49;23.60;64.80
19947;DHT22;10135;50.702;7.276;2023-09-18T05:59:49;23.60;64.80
19947;DHT22;10135;50.702;7.276;2023-09-18T06:01:50;23.70;64.80
19947;DHT22;10135;50.702;7.276;2023-09-18T06:03:51;23.70;64.80
19947;DHT22;10135;50.702;7.276;2023-09-18T06:05:52;23.60;64.80
19947;DHT22;10135;50.702;7.276;2023-09-18T06:07:52;23.60;64.80
19947;DHT22;10135;50.702;7.276;2023-09-18T06:09:53;23.70;64.80
19947;DHT22;10135;50.702;7.276;2023-09-18T06:11:54;23.60;64.70
19947;DHT22;10135;50.702;7.276;2023-09-18T06:13:55;23.60;64.70
19947;DHT22;10135;50.702;7.276;2023-09-18T06:15:56;23.60;64.80
19947;DHT22;10135;50.702;7.276;2023-09-18T06:17:57;23.60;64.80
19947;DHT22;10135;50.702;7.276;2023-09-18T06:19:57;23.60;64.80
19947;DHT22;10135;50.702;7.276;2023-09-18T06:21:58;23.60;64.80
19947;DHT22;10135;50.702;7.276;2023-09-18T06:23:58;23.60;64.80
19947;DHT22;10135;50.702;7.276;2023-09-18T06:25:59;23.70;64.90
19947;DHT22;10135;50.702;7.276;2023-09-18T06:28:00;23.70;64.80
19947;DHT22;10135;50.702;7.276;2023-09-18T06:30:04;23.70;64.80
19947;DHT22;10135;50.702;7.276;2023-09-18T06:32:05;23.70;64.80
19947;DHT22;10135;50.702;7.276;2023-09-18T06:34:06;23.70;64.70
19947;DHT22;10135;50.702;7.276;2023-09-18T06:36:07;23.70;64.60
19947;DHT22;10135;50.702;7.276;2023-09-18T06:38:08;23.70;64.70
19947;DHT22;10135;50.702;7.276;2023-09-18T06:40:10;23.70;64.60
19947;DHT22;10135;50.702;7.276;2023-09-18T06:42:11;23.70;64.60
19947;DHT22;10135;50.702;7.276;2023-09-18T06:44:12;23.80;64.60
19947;DHT22;10135;50.702;7.276;2023-09-18T06:46:12;23.70;64.40
19947;DHT22;10135;50.702;7.276;2023-09-18T06:48:13;23.70;64.40
19947;DHT22;10135;50.702;7.276;2023-09-18T06:50:14;23.80;64.40
19947;DHT22;10135;50.702;7.276;2023-09-18T06:52:15;23.70;64.40
19947;DHT22;10135;50.702;7.276;2023-09-18T06:54:17;23.70;64.40
19947;DHT22;10135;50.702;7.276;2023-09-18T06:56:17;23.80;64.40
19947;DHT22;10135;50.702;7.276;2023-09-18T06:58:18;23.80;64.40
19947;DHT22;10135;50.702;7.276;2023-09-18T07:00:19;23.80;64.40
19947;DHT22;10135;50.702;7.276;2023-09-18T07:02:22;23.80;64.40
19947;DHT22;10135;50.702;7.276;2023-09-18T07:04:22;23.80;64.30
19947;DHT22;10135;50.702;7.276;2023-09-18T07:06:23;23.80;64.30
19947;DHT22;10135;50.702;7.276;2023-09-18T07:08:23;23.80;64.30
19947;DHT22;10135;50.702;7.276;2023-09-18T07:10:24;23.80;64.20
19947;DHT22;10135;50.702;7.276;2023-09-18T07:12:25;23.80;64.20
19947;DHT22;10135;50.702;7.276;2023-09-18T07:14:25;23.80;64.20
19947;DHT22;10135;50.702;7.276;2023-09-18T07:16:26;23.80;64.20
19947;DHT22;10135;50.702;7.276;2023-09-18T07:18:26;23.80;64.20
19947;DHT22;10135;50.702;7.276;2023-09-18T07:20:27;23.80;64.10
19947;DHT22;10135;50.702;7.276;2023-09-18T07:22:28;23.80;64.10
19947;DHT22;10135;50.702;7.276;2023-09-18T07:24:29;23.80;64.10
19947;DHT22;10135;50.702;7.276;2023-09-18T07:26:29;23.80;64.20
19947;DHT22;10135;50.702;7.276;2023-09-18T07:28:30;23.80;64.10
19947;DHT22;10135;50.702;7.276;2023-09-18T07:30:31;23.80;64.10
19947;DHT22;10135;50.702;7.276;2023-09-18T07:32:31;23.80;64.10
19947;DHT22;10135;50.702;7.276;2023-09-18T07:34:32;23.80;64.10
19947;DHT22;10135;50.702;7.276;2023-09-18T07:36:33;23.90;64.80
19947;DHT22;10135;50.702;7.276;2023-09-18T07:38:34;23.80;64.00
19947;DHT22;10135;50.702;7.276;2023-09-18T07:40:34;23.80;63.90
19947;DHT22;10135;50.702;7.276;2023-09-18T07:42:35;23.80;64.00
19947;DHT22;10135;50.702;7.276;2023-09-18T07:44:36;23.80;64.00
19947;DHT22;10135;50.702;7.276;2023-09-18T07:46:36;23.80;64.00
19947;DHT22;10135;50.702;7.276;2023-09-18T07:48:37;23.90;64.00
19947;DHT22;10135;50.702;7.276;2023-09-18T07:50:38;23.90;64.00
19947;DHT22;10135;50.702;7.276;2023-09-18T07:52:44;23.90;64.10
19947;DHT22;10135;50.702;7.276;2023-09-18T07:54:44;23.90;64.00
19947;DHT22;10135;50.702;7.276;2023-09-18T07:56:45;23.90;64.00
19947;DHT22;10135;50.702;7.276;2023-09-18T07:58:45;23.90;64.00
19947;DHT22;10135;50.702;7.276;2023-09-18T08:00:47;23.90;63.90
19947;DHT22;10135;50.702;7.276;2023-09-18T08:02:49;23.90;63.90
19947;DHT22;10135;50.702;7.276;2023-09-18T08:04:52;23.90;64.70
19947;DHT22;10135;50.702;7.276;2023-09-18T08:06:53;23.90;63.90
19947;DHT22;10135;50.702;7.276;2023-09-18T08:08:54;23.90;63.90
19947;DHT22;10135;50.702;7.276;2023-09-18T08:10:54;24.00;63.90
19947;DHT22;10135;50.702;7.276;2023-09-18T08:12:55;24.00;63.90
19947;DHT22;10135;50.702;7.276;2023-09-18T08:14:56;24.00;63.80
19947;DHT22;10135;50.702;7.276;2023-09-18T08:17:00;24.00;63.90
19947;DHT22;10135;50.702;7.276;2023-09-18T08:19:01;24.00;63.80
19947;DHT22;10135;50.702;7.276;2023-09-18T08:21:02;24.00;63.80
19947;DHT22;10135;50.702;7.276;2023-09-18T08:23:05;24.00;63.90
19947;DHT22;10135;50.702;7.276;2023-09-18T08:25:06;24.00;63.70
19947;DHT22;10135;50.702;7.276;2023-09-18T08:27:10;24.10;63.80
19947;DHT22;10135;50.702;7.276;2023-09-18T08:29:12;24.10;63.70
19947;DHT22;10135;50.702;7.276;2023-09-18T08:31:13;24.10;63.60
19947;DHT22;10135;50.702;7.276;2023-09-18T08:33:16;24.10;63.60
19947;DHT22;10135;50.702;7.276;2023-09-18T08:35:17;24.10;63.60
19947;DHT22;10135;50.702;7.276;2023-09-18T08:37:18;24.10;63.60
19947;DHT22;10135;50.702;7.276;2023-09-18T08:39:18;24.10;63.60
19947;DHT22;10135;50.702;7.276;2023-09-18T08:41:19;24.10;63.50
19947;DHT22;10135;50.702;7.276;2023-09-18T08:43:22;24.10;63.60
19947;DHT22;10135;50.702;7.276;2023-09-18T08:45:46;24.10;63.50
19947;DHT22;10135;50.702;7.276;2023-09-18T08:47:51;24.10;63.40
19947;DHT22;10135;50.702;7.276;2023-09-18T08:49:54;24.10;63.50
19947;DHT22;10135;50.702;7.276;2023-09-18T08:51:56;24.10;63.50
19947;DHT22;10135;50.702;7.276;2023-09-18T08:53:58;24.10;63.40
19947;DHT22;10135;50.702;7.276;2023-09-18T08:56:00;24.10;63.40
19947;DHT22;10135;50.702;7.276;2023-09-18T08:58:06;24.10;63.40
19947;DHT22;10135;50.702;7.276;2023-09-18T09:00:08;24.10;63.40
19947;DHT22;10135;50.702;7.276;2023-09-18T09:02:12;24.10;63.40
19947;DHT22;10135;50.702;7.276;2023-09-18T09:04:13;24.10;63.40
19947;DHT22;10135;50.702;7.276;2023-09-18T09:06:14;24.10;63.40
19947;DHT22;10135;50.702;7.276;2023-09-18T09:08:15;24.10;63.40
19947;DHT22;10135;50.702;7.276;2023-09-18T09:10:16;24.10;63.30
19947;DHT22;10135;50.702;7.276;2023-09-18T09:12:46;24.10;63.30
19947;DHT22;10135;50.702;7.276;2023-09-18T09:15:02;24.10;63.20
19947;DHT22;10135;50.702;7.276;2023-09-18T09:17:04;24.20;63.20
19947;DHT22;10135;50.702;7.276;2023-09-18T09:19:05;24.20;63.40
19947;DHT22;10135;50.702;7.276;2023-09-18T09:21:06;24.20;63.30
19947;DHT22;10135;50.702;7.276;2023-09-18T09:23:09;24.20;63.20
19947;DHT22;10135;50.702;7.276;2023-09-18T09:25:23;24.20;63.20
19947;DHT22;10135;50.702;7.276;2023-09-18T09:27:26;24.30;63.20
19947;DHT22;10135;50.702;7.276;2023-09-18T09:29:27;24.30;63.20
19947;DHT22;10135;50.702;7.276;2023-09-18T09:31:29;24.30;63.60
19947;DHT22;10135;50.702;7.276;2023-09-18T09:33:31;24.30;63.20
19947;DHT22;10135;50.702;7.276;2023-09-18T09:35:33;24.30;63.20
19947;DHT22;10135;50.702;7.276;2023-09-18T09:37:35;24.30;63.10
19947;DHT22;10135;50.702;7.276;2023-09-18T09:39:52;24.40;63.20
19947;DHT22;10135;50.702;7.276;2023-09-18T09:41:53;24.40;63.00
19947;DHT22;10135;50.702;7.276;2023-09-18T09:43:54;24.30;63.00
19947;DHT22;10135;50.702;7.276;2023-09-18T09:46:01;24.30;63.00
19947;DHT22;10135;50.702;7.276;2023-09-18T09:48:04;24.40;63.00
19947;DHT22;10135;50.702;7.276;2023-09-18T09:50:13;24.30;63.00
19947;DHT22;10135;50.702;7.276;2023-09-18T09:52:19;24.30;62.80
19947;DHT22;10135;50.702;7.276;2023-09-18T09:54:32;24.40;63.00
19947;DHT22;10135;50.702;7.276;2023-09-18T09:56:49;24.30;62.70
19947;DHT22;10135;50.702;7.276;2023-09-18T09:59:01;24.30;62.70
19947;DHT22;10135;50.702;7.276;2023-09-18T10:01:09;24.30;62.80
19947;DHT22;10135;50.702;7.276;2023-09-18T10:03:20;24.30;62.80
19947;DHT22;10135;50.702;7.276;2023-09-18T10:05:21;24.30;63.00
19947;DHT22;10135;50.702;7.276;2023-09-18T10:07:25;24.30;62.90
19947;DHT22;10135;50.702;7.276;2023-09-18T10:09:26;24.30;62.90
19947;DHT22;10135;50.702;7.276;2023-09-18T10:11:31;24.30;62.90
19947;DHT22;10135;50.702;7.276;2023-09-18T10:14:04;24.30;62.90
19947;DHT22;10135;50.702;7.276;2023-09-18T10:16:18;24.40;62.90
19947;DHT22;10135;50.702;7.276;2023-09-18T10:18:32;24.40;63.00
19947;DHT22;10135;50.702;7.276;2023-09-18T10:21:07;24.40;63.00
19947;DHT22;10135;50.702;7.276;2023-09-18T10:23:21;24.50;63.00
19947;DHT22;10135;50.702;7.276;2023-09-18T10:25:29;24.60;63.20
19947;DHT22;10135;50.702;7.276;2023-09-18T10:27:32;24.70;63.30
19947;DHT22;10135;50.702;7.276;2023-09-18T10:29:35;24.70;63.10
19947;DHT22;10135;50.702;7.276;2023-09-18T10:31:38;24.80;63.10
19947;DHT22;10135;50.702;7.276;2023-09-18T10:33:41;24.90;63.00
19947;DHT22;10135;50.702;7.276;2023-09-18T10:35:43;25.00;62.80
19947;DHT22;10135;50.702;7.276;2023-09-18T10:37:49;25.10;62.70
19947;DHT22;10135;50.702;7.276;2023-09-18T10:39:55;25.20;62.70
19947;DHT22;10135;50.702;7.276;2023-09-18T10:41:58;25.30;62.60
19947;DHT22;10135;50.702;7.276;2023-09-18T10:44:03;25.40;62.60
19947;DHT22;10135;50.702;7.276;2023-09-18T10:46:04;25.40;62.40
19947;DHT22;10135;50.702;7.276;2023-09-18T10:48:06;25.50;62.40
19947;DHT22;10135;50.702;7.276;2023-09-18T10:50:09;25.60;62.20
19947;DHT22;10135;50.702;7.276;2023-09-18T10:52:13;25.60;62.00
19947;DHT22;10135;50.702;7.276;2023-09-18T10:54:21;25.70;61.80
19947;DHT22;10135;50.702;7.276;2023-09-18T10:56:24;25.70;61.60
19947;DHT22;10135;50.702;7.276;2023-09-18T10:58:27;25.80;61.90
19947;DHT22;10135;50.702;7.276;2023-09-18T11:00:32;25.90;61.70
19947;DHT22;10135;50.702;7.276;2023-09-18T11:02:36;26.00;61.60
19947;DHT22;10135;50.702;7.276;2023-09-18T11:04:37;26.00;61.70
19947;DHT22;10135;50.702;7.276;2023-09-18T11:09:02;26.10;60.80
19947;DHT22;10135;50.702;7.276;2023-09-18T11:11:08;26.20;60.90
19947;DHT22;10135;50.702;7.276;2023-09-18T11:13:11;26.20;60.70
19947;DHT22;10135;50.702;7.276;2023-09-18T11:15:31;26.20;61.00
19947;DHT22;10135;50.702;7.276;2023-09-18T11:17:37;26.30;60.60
19947;DHT22;10135;50.702;7.276;2023-09-18T11:19:41;26.30;60.60
19947;DHT22;10135;50.702;7.276;2023-09-18T11:21:45;26.40;60.60
19947;DHT22;10135;50.702;7.276;2023-09-18T11:23:46;26.40;60.60
19947;DHT22;10135;50.702;7.276;2023-09-18T11:25:58;26.40;60.40
19947;DHT22;10135;50.702;7.276;2023-09-18T11:27:59;26.50;60.40
19947;DHT22;10135;50.702;7.276;2023-09-18T11:30:04;26.50;60.30
19947;DHT22;10135;50.702;7.276;2023-09-18T11:32:05;26.60;60.30
19947;DHT22;10135;50.702;7.276;2023-09-18T11:34:26;26.60;60.30
19947;DHT22;10135;50.702;7.276;2023-09-18T11:36:31;26.70;59.70
19947;DHT22;10135;50.702;7.276;2023-09-18T11:38:34;26.70;60.10
19947;DHT22;10135;50.702;7.276;2023-09-18T11:40:51;26.80;59.90
19947;DHT22;10135;50.702;7.276;2023-09-18T11:43:28;26.80;59.80
19947;DHT22;10135;50.702;7.276;2023-09-18T11:45:35;26.90;59.30
19947;DHT22;10135;50.702;7.276;2023-09-18T11:47:36;26.90;59.60
19947;DHT22;10135;50.702;7.276;2023-09-18T11:50:09;27.00;59.50
19947;DHT22;10135;50.702;7.276;2023-09-18T11:52:12;27.00;59.10
19947;DHT22;10135;50.702;7.276;2023-09-18T11:54:15;27.10;59.40
19947;DHT22;10135;50.702;7.276;2023-09-18T11:56:17;27.10;59.10
19947;DHT22;10135;50.702;7.276;2023-09-18T11:58:19;27.20;59.10
19947;DHT22;10135;50.702;7.276;2023-09-18T12:00:23;27.20;58.90
19947;DHT22;10135;50.702;7.276;2023-09-18T12:02:27;27.30;58.80
19947;DHT22;10135;50.702;7.276;2023-09-18T12:04:36;27.30;58.60
19947;DHT22;10135;50.702;7.276;2023-09-18T12:06:39;27.40;58.70
19947;DHT22;10135;50.702;7.276;2023-09-18T12:08:41;27.40;58.40
19947;DHT22;10135;50.702;7.276;2023-09-18T12:10:42;27.40;58.40
19947;DHT22;10135;50.702;7.276;2023-09-18T12:12:43;27.50;58.30
19947;DHT22;10135;50.702;7.276;2023-09-18T12:14:44;27.50;58.20
19947;DHT22;10135;50.702;7.276;2023-09-18T12:16:45;27.50;58.00
19947;DHT22;10135;50.702;7.276;2023-09-18T12:18:47;27.50;57.90
19947;DHT22;10135;50.702;7.276;2023-09-18T12:20:51;27.40;57.80
19947;DHT22;10135;50.702;7.276;2023-09-18T12:22:51;27.50;57.90
19947;DHT22;10135;50.702;7.276;2023-09-18T12:24:52;27.50;57.80
19947;DHT22;10135;50.702;7.276;2023-09-18T12:26:54;27.50;57.70
19947;DHT22;10135;50.702;7.276;2023-09-18T12:28:56;27.50;57.60
19947;DHT22;10135;50.702;7.276;2023-09-18T12:31:00;27.60;57.60
19947;DHT22;10135;50.702;7.276;2023-09-18T12:33:05;27.60;57.50
19947;DHT22;10135;50.702;7.276;2023-09-18T12:35:06;27.70;57.30
19947;DHT22;10135;50.702;7.276;2023-09-18T12:37:12;27.70;57.10
19947;DHT22;10135;50.702;7.276;2023-09-18T12:39:14;27.80;56.60
19947;DHT22;10135;50.702;7.276;2023-09-18T12:41:16;27.80;56.90
19947;DHT22;10135;50.702;7.276;2023-09-18T12:43:17;27.80;56.80
19947;DHT22;10135;50.702;7.276;2023-09-18T12:45:18;27.80;56.70
19947;DHT22;10135;50.702;7.276;2023-09-18T12:47:20;27.90;56.70
19947;DHT22;10135;50.702;7.276;2023-09-18T12:49:22;27.90;56.60
19947;DHT22;10135;50.702;7.276;2023-09-18T12:51:29;27.90;56.40
19947;DHT22;10135;50.702;7.276;2023-09-18T12:53:32;27.90;56.30
19947;DHT22;10135;50.702;7.276;2023-09-18T12:55:34;28.00;56.20
19947;DHT22;10135;50.702;7.276;2023-09-18T12:57:35;28.00;56.10
19947;DHT22;10135;50.702;7.276;2023-09-18T12:59:36;28.00;55.90
19947;DHT22;10135;50.702;7.276;2023-09-18T13:01:38;28.00;55.80
19947;DHT22;10135;50.702;7.276;2023-09-18T13:03:44;28.00;55.70
19947;DHT22;10135;50.702;7.276;2023-09-18T13:05:46;28.00;55.20
19947;DHT22;10135;50.702;7.276;2023-09-18T13:07:48;28.10;56.20
19947;DHT22;10135;50.702;7.276;2023-09-18T13:10:01;28.10;55.60
19947;DHT22;10135;50.702;7.276;2023-09-18T13:12:05;28.10;54.80
19947;DHT22;10135;50.702;7.276;2023-09-18T13:14:06;28.10;55.30
19947;DHT22;10135;50.702;7.276;2023-09-18T13:16:08;28.10;55.20
19947;DHT22;10135;50.702;7.276;2023-09-18T13:18:12;28.20;55.20
19947;DHT22;10135;50.702;7.276;2023-09-18T13:20:14;28.20;55.10
19947;DHT22;10135;50.702;7.276;2023-09-18T13:22:23;28.20;55.00
19947;DHT22;10135;50.702;7.276;2023-09-18T13:24:29;28.30;54.50
19947;DHT22;10135;50.702;7.276;2023-09-18T13:26:31;28.30;54.70
19947;DHT22;10135;50.702;7.276;2023-09-18T13:28:32;28.30;54.60
19947;DHT22;10135;50.702;7.276;2023-09-18T13:30:37;28.40;54.50
19947;DHT22;10135;50.702;7.276;2023-09-18T13:32:39;28.30;54.30
19947;DHT22;10135;50.702;7.276;2023-09-18T13:34:40;28.30;54.10
19947;DHT22;10135;50.702;7.276;2023-09-18T13:36:40;28.30;54.10
19947;DHT22;10135;50.702;7.276;2023-09-18T13:38:41;28.30;54.00
19947;DHT22;10135;50.702;7.276;2023-09-18T13:40:46;28.40;53.90
19947;DHT22;10135;50.702;7.276;2023-09-18T13:42:47;28.40;53.80
19947;DHT22;10135;50.702;7.276;2023-09-18T13:44:51;28.40;53.70
19947;DHT22;10135;50.702;7.276;2023-09-18T13:46:54;28.30;53.40
19947;DHT22;10135;50.702;7.276;2023-09-18T13:48:54;28.40;53.40
19947;DHT22;10135;50.702;7.276;2023-09-18T13:50:55;28.30;53.30
19947;DHT22;10135;50.702;7.276;2023-09-18T13:52:55;28.30;53.20
19947;DHT22;10135;50.702;7.276;2023-09-18T13:54:57;28.30;53.20
19947;DHT22;10135;50.702;7.276;2023-09-18T13:56:58;28.30;53.10
19947;DHT22;10135;50.702;7.276;2023-09-18T13:58:58;28.30;53.00
19947;DHT22;10135;50.702;7.276;2023-09-18T14:00:59;28.30;52.90
19947;DHT22;10135;50.702;7.276;2023-09-18T14:03:00;28.30;52.80
19947;DHT22;10135;50.702;7.276;2023-09-18T14:05:03;28.30;52.80
19947;DHT22;10135;50.702;7.276;2023-09-18T14:07:06;28.30;52.90
19947;DHT22;10135;50.702;7.276;2023-09-18T14:09:08;28.30;52.80
19947;DHT22;10135;50.702;7.276;2023-09-18T14:11:10;28.30;52.80
19947;DHT22;10135;50.702;7.276;2023-09-18T14:13:11;28.30;52.80
19947;DHT22;10135;50.702;7.276;2023-09-18T14:15:12;28.30;52.80
19947;DHT22;10135;50.702;7.276;2023-09-18T14:17:13;28.30;52.70
19947;DHT22;10135;50.702;7.276;2023-09-18T14:19:14;28.30;52.60
19947;DHT22;10135;50.702;7.276;2023-09-18T14:21:14;28.30;52.50
19947;DHT22;10135;50.702;7.276;2023-09-18T14:23:15;28.30;52.40
19947;DHT22;10135;50.702;7.276;2023-09-18T14:25:17;28.30;52.30
19947;DHT22;10135;50.702;7.276;2023-09-18T14:27:20;28.30;52.30
19947;DHT22;10135;50.702;7.276;2023-09-18T14:29:21;28.30;52.20
19947;DHT22;10135;50.702;7.276;2023-09-18T14:31:22;28.30;52.10
19947;DHT22;10135;50.702;7.276;2023-09-18T14:33:22;28.30;52.00
19947;DHT22;10135;50.702;7.276;2023-09-18T14:35:23;28.30;52.00
19947;DHT22;10135;50.702;7.276;2023-09-18T14:37:23;28.20;51.90
19947;DHT22;10135;50.702;7.276;2023-09-18T14:39:24;28.20;51.90
19947;DHT22;10135;50.702;7.276;2023-09-18T14:41:27;28.20;51.80
19947;DHT22;10135;50.702;7.276;2023-09-18T14:43:27;28.20;51.80
19947;DHT22;10135;50.702;7.276;2023-09-18T14:45:28;28.10;51.70
19947;DHT22;10135;50.702;7.276;2023-09-18T14:47:29;28.10;51.70
19947;DHT22;10135;50.702;7.276;2023-09-18T14:49:30;28.10;51.60
19947;DHT22;10135;50.702;7.276;2023-09-18T14:51:31;28.10;51.50
19947;DHT22;10135;50.702;7.276;2023-09-18T14:53:32;28.00;51.40
19947;DHT22;10135;50.702;7.276;2023-09-18T14:55:33;28.00;51.50
19947;DHT22;10135;50.702;7.276;2023-09-18T14:57:35;28.00;51.40
19947;DHT22;10135;50.702;7.276;2023-09-18T14:59:36;27.90;51.40
19947;DHT22;10135;50.702;7.276;2023-09-18T15:01:38;27.90;51.40
19947;DHT22;10135;50.702;7.276;2023-09-18T15:03:40;27.90;51.30
19947;DHT22;10135;50.702;7.276;2023-09-18T15:05:40;27.90;51.20
19947;DHT22;10135;50.702;7.276;2023-09-18T15:07:41;27.90;51.20
19947;DHT22;10135;50.702;7.276;2023-09-18T15:09:42;27.90;51.10
19947;DHT22;10135;50.702;7.276;2023-09-18T15:11:43;27.90;51.00
19947;DHT22;10135;50.702;7.276;2023-09-18T15:13:43;27.90;51.00
19947;DHT22;10135;50.702;7.276;2023-09-18T15:15:45;27.90;50.80
19947;DHT22;10135;50.702;7.276;2023-09-18T15:17:46;27.80;50.70
19947;DHT22;10135;50.702;7.276;2023-09-18T15:19:47;27.80;50.60
19947;DHT22;10135;50.702;7.276;2023-09-18T15:21:52;27.80;51.20
19947;DHT22;10135;50.702;7.276;2023-09-18T15:23:55;27.80;50.60
19947;DHT22;10135;50.702;7.276;2023-09-18T15:25:57;27.80;50.60
19947;DHT22;10135;50.702;7.276;2023-09-18T15:27:58;27.80;50.50
19947;DHT22;10135;50.702;7.276;2023-09-18T15:29:59;27.80;50.40
19947;DHT22;10135;50.702;7.276;2023-09-18T15:32:00;27.80;50.40
19947;DHT22;10135;50.702;7.276;2023-09-18T15:34:02;27.80;50.30
19947;DHT22;10135;50.702;7.276;2023-09-18T15:36:03;27.70;50.10
19947;DHT22;10135;50.702;7.276;2023-09-18T15:38:04;27.70;50.10
19947;DHT22;10135;50.702;7.276;2023-09-18T15:40:07;27.60;50.00
19947;DHT22;10135;50.702;7.276;2023-09-18T15:42:08;27.60;50.00
19947;DHT22;10135;50.702;7.276;2023-09-18T15:44:09;27.60;50.10
19947;DHT22;10135;50.702;7.276;2023-09-18T15:46:12;27.60;50.00
19947;DHT22;10135;50.702;7.276;2023-09-18T15:48:14;27.50;49.90
19947;DHT22;10135;50.702;7.276;2023-09-18T15:50:14;27.50;49.90
19947;DHT22;10135;50.702;7.276;2023-09-18T15:52:16;27.50;49.90
19947;DHT22;10135;50.702;7.276;2023-09-18T15:54:16;27.50;49.90
19947;DHT22;10135;50.702;7.276;2023-09-18T15:56:17;27.50;49.90
19947;DHT22;10135;50.702;7.276;2023-09-18T15:58:17;27.40;49.80
19947;DHT22;10135;50.702;7.276;2023-09-18T16:00:19;27.40;49.80
19947;DHT22;10135;50.702;7.276;2023-09-18T16:02:20;27.40;49.80
19947;DHT22;10135;50.702;7.276;2023-09-18T16:04:21;27.40;49.80
19947;DHT22;10135;50.702;7.276;2023-09-18T16:06:22;27.40;49.80
19947;DHT22;10135;50.702;7.276;2023-09-18T16:08:22;27.40;49.80
19947;DHT22;10135;50.702;7.276;2023-09-18T16:10:23;27.40;49.80
19947;DHT22;10135;50.702;7.276;2023-09-18T16:12:24;27.40;49.80
19947;DHT22;10135;50.702;7.276;2023-09-18T16:14:43;27.40;49.70
19947;DHT22;10135;50.702;7.276;2023-09-18T16:16:44;27.40;49.70
19947;DHT22;10135;50.702;7.276;2023-09-18T16:18:46;27.50;49.70
19947;DHT22;10135;50.702;7.276;2023-09-18T16:20:47;27.40;49.60
19947;DHT22;10135;50.702;7.276;2023-09-18T16:22:48;27.40;49.50
19947;DHT22;10135;50.702;7.276;2023-09-18T16:24:48;27.40;49.50
19947;DHT22;10135;50.702;7.276;2023-09-18T16:26:49;27.40;49.50
19947;DHT22;10135;50.702;7.276;2023-09-18T16:28:50;27.40;49.50
19947;DHT22;10135;50.702;7.276;2023-09-18T16:30:51;27.40;49.40
19947;DHT22;10135;50.702;7.276;2023-09-18T16:32:51;27.40;49.40
19947;DHT22;10135;50.702;7.276;2023-09-18T16:34:52;27.40;49.40
19947;DHT22;10135;50.702;7.276;2023-09-18T16:36:53;27.40;49.40
19947;DHT22;10135;50.702;7.276;2023-09-18T16:38:53;27.40;49.40
19947;DHT22;10135;50.702;7.276;2023-09-18T16:40:54;27.40;49.30
19947;DHT22;10135;50.702;7.276;2023-09-18T16:42:55;27.40;49.30
19947;DHT22;10135;50.702;7.276;2023-09-18T16:44:55;27.40;49.30
19947;DHT22;10135;50.702;7.276;2023-09-18T16:46:56;27.40;49.30
19947;DHT22;10135;50.702;7.276;2023-09-18T16:48:56;27.40;49.30
19947;DHT22;10135;50.702;7.276;2023-09-18T16:50:58;27.40;49.20
19947;DHT22;10135;50.702;7.276;2023-09-18T16:53:00;27.30;49.10
19947;DHT22;10135;50.702;7.276;2023-09-18T16:55:01;27.30;49.00
19947;DHT22;10135;50.702;7.276;2023-09-18T16:57:05;27.30;49.00
19947;DHT22;10135;50.702;7.276;2023-09-18T16:59:06;27.30;49.00
19947;DHT22;10135;50.702;7.276;2023-09-18T17:01:07;27.20;49.00
19947;DHT22;10135;50.702;7.276;2023-09-18T17:03:08;27.20;49.00
19947;DHT22;10135;50.702;7.276;2023-09-18T17:05:08;27.20;49.00
19947;DHT22;10135;50.702;7.276;2023-09-18T17:07:09;27.10;48.90
19947;DHT22;10135;50.702;7.276;2023-09-18T17:09:10;27.10;48.90
19947;DHT22;10135;50.702;7.276;2023-09-18T17:11:11;27.10;48.90
19947;DHT22;10135;50.702;7.276;2023-09-18T17:13:12;27.10;48.90
19947;DHT22;10135;50.702;7.276;2023-09-18T17:15:12;27.00;48.80
19947;DHT22;10135;50.702;7.276;2023-09-18T17:17:15;27.00;48.80
19947;DHT22;10135;50.702;7.276;2023-09-18T17:19:15;27.00;48.80
19947;DHT22;10135;50.702;7.276;2023-09-18T17:21:18;26.90;48.80
19947;DHT22;10135;50.702;7.276;2023-09-18T17:23:18;26.90;48.80
19947;DHT22;10135;50.702;7.276;2023-09-18T17:25:20;26.90;48.80
19947;DHT22;10135;50.702;7.276;2023-09-18T17:27:21;26.80;48.80
19947;DHT22;10135;50.702;7.276;2023-09-18T17:29:22;26.80;48.90
19947;DHT22;10135;50.702;7.276;2023-09-18T17:31:22;26.80;48.90
19947;DHT22;10135;50.702;7.276;2023-09-18T17:33:24;26.70;48.80
19947;DHT22;10135;50.702;7.276;2023-09-18T17:35:24;26.70;48.80
19947;DHT22;10135;50.702;7.276;2023-09-18T17:37:25;26.70;48.90
19947;DHT22;10135;50.702;7.276;2023-09-18T17:39:27;26.70;48.90
19947;DHT22;10135;50.702;7.276;2023-09-18T17:41:27;26.60;48.90
19947;DHT22;10135;50.702;7.276;2023-09-18T17:43:28;26.60;48.90
19947;DHT22;10135;50.702;7.276;2023-09-18T17:45:28;26.60;48.90
19947;DHT22;10135;50.702;7.276;2023-09-18T17:47:29;26.50;48.80
19947;DHT22;10135;50.702;7.276;2023-09-18T17:49:30;26.50;48.80
19947;DHT22;10135;50.702;7.276;2023-09-18T17:51:31;26.50;48.90
19947;DHT22;10135;50.702;7.276;2023-09-18T17:53:34;26.50;48.90
19947;DHT22;10135;50.702;7.276;2023-09-18T17:55:35;26.40;48.80
19947;DHT22;10135;50.702;7.276;2023-09-18T17:57:35;26.40;48.90